Accueil
METAR-TAF:

METAR-TAF

Aéroports :

Aéroport international de Coni

Coni, Italie

latitude: 44-32-47N, longitude: 007-37-20E, altitude: 386 m

Observation

Le bulletin a été fait il y a 1 heure et 19 minutes, à 11:50 UTC
Vent 5 kt de nord/nord-est
Température 21°C
Humidité 78%
Pression 1023 hPa
Visibilité 10 km ou plus
Nuages épars à une hauteur de 2500 ft

METAR: LIMZ 221150Z 02005KT 9999 SCT025 21/17 Q1023

Heure: 15:09 (13:09 UTC)

Prévision

Le bulletin a été fait il y a 2 heures et 9 minutes, à 11:00 UTC
Prévision valable du 22 à 12 UTC au 23 à 12 UTC
Vent 5 kt de direction variable
Visibilité: 8000 m
Nuages fragmentés à une hauteur de 4000 ft

TAF: LIMZ 221100Z 2212/2312 VRB05KT 8000 BKN040

Observations et prévisions météorologiques de plus de 4000 aéroports (messages METAR et TAF).

Les stations disponibles sont représentées par des disques jaunes et rouges sur la carte.

Passer la souris dessus pour voir le nom de la station.

Cliquer dessus pour voir les observations et prévisions météorologiques.

Pour changer de carte: cliquez sur les boutons verts avec une croix noire pour zoomer, sur le bouton vert avec un tiret pour effectuer un zoom arrière, ou sur les flèches vertes pour les cartes adjacentes.


METAR-TAF: